Portada
METAR-TAF:

METAR-TAF

Aeropuertos :

Aeropuerto Internacional de Limón

Limón, Costa Rica

latitud: 10-00N, longitud: 083-03W, altitud: 5 m

Observación

El informe se hizo hace 5 minutos, a las 13:00 UTC
Viento 4 kt del suroeste
Temperatura 22°C
Humedad 94%
Presión 1016 hPa
Visibilidad 10 km o más
Escasas nubes a una altura de 1500 ft, Cumulus congestus.
Cielo nuboso a una altura de 9000 ft
chaparrones en las proximidades

METAR: MRLM 291300Z 22004KT 9999 VCSH FEW015TCU BKN090 22/21 A2999

Hora: 07:05 (13:05 UTC)

Pronóstico

El informe se hizo hace 1 hora y 35 minutos, a las 11:30 UTC
Pronóstico válido del 29 a las 12 UTC al 30 a las 12 UTC
Viento 5 kt del oeste-suroeste
Visibilidad 10 km o más
Escasas nubes a una altura de 3000 ft
Nubes dispersas a una altura de 10000 ft
Temporalmente
del 29 a las 10 UTC al 29 a las 15 UTC
llovizna
Evolucionando progresivamente
del 29 a las 16 UTC al 29 a las 18 UTC
Viento 6 kt del este-noreste
Evolucionando progresivamente
del 30 a las 00 UTC al 30 a las 06 UTC
Viento 12 kt del este
Visibilidad 10 km o más
Escasas nubes a una altura de 4000 ft
Temporalmente
del 29 a las 14 UTC al 29 a las 21 UTC
Viento 10 kt del este con ráfagas de 20 kt

TAF: MRLM 291130Z 2912/3012 25005KT 9999 FEW030 SCT100 TX30/2921Z TN21/2911Z TEMPO 2910/2915 DZ BECMG 2916/2918 07006KT BECMG 3000/3006 25005KT MRPV 291130Z 2912/3012 10012KT 9999 FEW040 TX29/2919Z TN17/3011Z TEMPO 2914/2921 09010G20KT

Observaciones y pronósticos meteorológicos de más de 4000 aeropuertos (mensajes METAR y TAF).

Los puntos amarillos y rojos representan las estaciones disponibles.

Ponga el ratón en el punto deseado para ver el nombre de la estación.

Haga clic para ver las observaciones y los pronósticos meteorológicos.

Para cambiar el mapa : haga clic en los botones verdes con una cruz de color negro para hacer un zoom, en el botón verde con un guión para alejar o en las flechas verdes para mapas adyacentes.


METAR-TAF: